< < Back
Terminal Aerodrome Forecast


Current Version              Previous Versions:   1  2  3  4  5  6  7  8  9  

Terminal Aerodrome Forecast

649
FTUS42 KJAX 132253 AAB
TAFJAX
TAF AMD
KJAX 132253Z 1323/1418 07006KT P6SM SKC
     FM140100 36005KT P6SM SKC
     FM141300 03006KT P6SM SCT030 BKN250=

Latest METAR

912
SAUS80 KWBC 140600
MTRJAX
METAR KJAX 140556Z 00000KT 10SM CLR 03/02 A3032 RMK AO2 SLP267 T00330017
10083 20028 58005


USA.gov is the U.S. government's official web portal to all federal, state and local government web resources and services.